^^
Saratoga-Weather Station Historical Data
Daily Summary for July 17, 2020 Units:  English    Metric   Both
Daily Weekly Monthly Yearly Custom
  High: Low: Average:
Temperature: 48.2 °F 36.7 °F 42.3 °F
Dew Point: 46 °F 35.8 °F 40.6 °F
Humidity: 98% 87% 94%
Wind Speed: 11mph 0mph 1.3mph
Wind Gust: 13mph - -
Wind- - West
Pressure: 30.2 in 30 in -
Precipitation: 0.13 in    
Historical Graphs
 
 
Tabular Data for July 17, 2020
Time Temperature Dew Point Pressure Wind Wind Speed Wind Gust Humidity Rainfall Rate (Hourly) solar
00:01 38.8 °F 37.8 °F 30.2 in Calm     96% 0 in 0 W/m2
00:06 38.8 °F 37.8 °F 30.2 in Calm     96% 0 in 0 W/m2
00:11 38.7 °F 37.6 °F 30.2 in Calm   2 mph 96% 0 in 0 W/m2
00:16 38.7 °F 37.6 °F 30.2 in Calm   4 mph 96% 0 in 0 W/m2
00:21 38.7 °F 37.6 °F 30.2 in Calm     96% 0 in 0 W/m2
00:26 38.7 °F 37.6 °F 30.2 in Calm   4 mph 96% 0 in 0 W/m2
00:31 38.7 °F 37.6 °F 30.2 in Calm     96% 0 in 0 W/m2
00:36 38.5 °F 37.4 °F 30.2 in Calm     96% 0 in 0 W/m2
00:41 38.5 °F 37.4 °F 30.2 in Calm     96% 0 in 0 W/m2
00:46 38.3 °F 37.2 °F 30.2 in Calm     96% 0 in 0 W/m2
00:51 38.3 °F 37.2 °F 30.2 in Calm     96% 0 in 0 W/m2
00:56 38.3 °F 37.2 °F 30.2 in Calm   1 mph 96% 0 in 0 W/m2
01:01 38.1 °F 37 °F 30.2 in Calm     96% 0 in 0 W/m2
01:06 38.1 °F 37 °F 30.1 in Calm     96% 0 in 0 W/m2
01:11 38.1 °F 37 °F 30.1 in Calm     96% 0 in 0 W/m2
01:16 38.1 °F 37 °F 30.1 in Calm     96% 0 in 0 W/m2
01:21 38.1 °F 37 °F 30.1 in Calm     96% 0 in 0 W/m2
01:26 38.1 °F 37 °F 30.1 in Calm     96% 0 in 0 W/m2
01:31 38.5 °F 37.4 °F 30.1 in Calm     96% 0 in 0 W/m2
01:36 38.5 °F 37.4 °F 30.1 in Calm     96% 0 in 0 W/m2
01:41 38.3 °F 37.2 °F 30.1 in Calm     96% 0 in 0 W/m2
01:46 38.3 °F 37.2 °F 30.1 in Calm     96% 0 in 0 W/m2
01:51 38.1 °F 37 °F 30.1 in Calm     96% 0 in 0 W/m2
01:56 37.9 °F 36.9 °F 30.1 in Calm     96% 0 in 0 W/m2
02:02 38.1 °F 37 °F 30.1 in Calm     96% 0 in 0 W/m2
02:07 38.1 °F 37.4 °F 30.1 in Calm     97% 0 in 0 W/m2
02:12 37.9 °F 36.9 °F 30.1 in Calm     96% 0 in 0 W/m2
02:17 37.9 °F 36.9 °F 30.1 in Calm     96% 0 in 0 W/m2
02:22 37.9 °F 36.9 °F 30.1 in Calm     96% 0 in 0 W/m2
02:27 37.9 °F 36.9 °F 30.1 in Calm     96% 0 in 0 W/m2
02:32 37.8 °F 36.7 °F 30.1 in Calm     96% 0 in 0 W/m2
02:37 37.8 °F 36.7 °F 30.1 in Calm     96% 0 in 0 W/m2
02:42 37.6 °F 36.5 °F 30.1 in Calm     96% 0 in 0 W/m2
02:47 37.6 °F 36.9 °F 30.1 in Calm     97% 0 in 0 W/m2
02:52 37.8 °F 37 °F 30.1 in Calm     97% 0 in 0 W/m2
02:57 37.8 °F 37 °F 30.1 in Calm     97% 0 in 0 W/m2
03:02 37.8 °F 37 °F 30.1 in Calm     97% 0 in 0 W/m2
03:07 37.6 °F 36.9 °F 30.1 in Calm     97% 0 in 0 W/m2
03:12 37.6 °F 36.5 °F 30.1 in Calm     96% 0 in 0 W/m2
03:17 37.4 °F 36.3 °F 30.1 in Calm     96% 0 in 0 W/m2
03:22 37.4 °F 36.3 °F 30.1 in Calm     96% 0 in 0 W/m2
03:27 37.2 °F 36.1 °F 30.1 in Calm     96% 0 in 0 W/m2
03:32 37.2 °F 36.5 °F 30.1 in Calm     97% 0 in 0 W/m2
03:37 37.2 °F 36.5 °F 30.1 in Calm     97% 0 in 0 W/m2
03:42 37 °F 36.3 °F 30.1 in Calm     97% 0 in 0 W/m2
03:47 37.2 °F 36.5 °F 30.1 in Calm     97% 0.01 in 0 W/m2
03:52 37.2 °F 36.5 °F 30.1 in Calm     97% 0.01 in 0 W/m2
03:57 37 °F 36.3 °F 30.1 in Calm     97% 0.01 in 0 W/m2
04:02 37 °F 36.3 °F 30.1 in Calm     97% 0.01 in 0 W/m2
04:07 37 °F 36 °F 30.1 in Calm     96% 0.01 in 0 W/m2
04:12 37 °F 36.3 °F 30.1 in Calm     97% 0.01 in 0 W/m2
04:17 37 °F 36.3 °F 30.1 in Calm     97% 0.01 in 0 W/m2
04:22 36.9 °F 36.1 °F 30.1 in Calm     97% 0.01 in 0 W/m2
04:27 36.9 °F 35.8 °F 30.1 in Calm     96% 0.01 in 0 W/m2
04:32 36.9 °F 36.1 °F 30.1 in Calm     97% 0.01 in 0 W/m2
04:37 36.7 °F 36 °F 30.1 in Calm     97% 0.01 in 0 W/m2
04:42 36.7 °F 36 °F 30.1 in Calm     97% 0.01 in 0 W/m2
04:47 36.7 °F 36 °F 30.1 in Calm     97% 0 in 0 W/m2
04:52 36.7 °F 36 °F 30.1 in Calm     97% 0 in 0 W/m2
04:57 36.7 °F 36 °F 30.1 in Calm     97% 0 in 0 W/m2
05:02 36.7 °F 36 °F 30.1 in Calm     97% 0 in 0 W/m2
05:07 36.7 °F 36 °F 30.1 in Calm     97% 0 in 0 W/m2
05:12 36.7 °F 36 °F 30.1 in Calm     97% 0 in 0 W/m2
05:17 36.7 °F 36 °F 30.1 in Calm     97% 0 in 0 W/m2
05:22 36.7 °F 36 °F 30.1 in Calm     97% 0 in 0 W/m2
05:27 36.9 °F 36.1 °F 30.1 in Calm     97% 0 in 0 W/m2
05:32 37 °F 36.3 °F 30.1 in Calm     97% 0 in 0 W/m2
05:37 37 °F 36.3 °F 30.1 in Calm     97% 0 in 0 W/m2
05:42 37 °F 36.3 °F 30.1 in Calm     97% 0 in 0 W/m2
05:47 37 °F 36.3 °F 30.1 in Calm     97% 0 in 0 W/m2
05:52 36.9 °F 36.1 °F 30.1 in Calm     97% 0 in 0 W/m2
05:57 36.9 °F 36.1 °F 30.1 in Calm     97% 0 in 0 W/m2
06:02 36.9 °F 36.1 °F 30.1 in Calm     97% 0 in 0 W/m2
06:07 36.9 °F 36.1 °F 30.1 in Calm     97% 0 in 0 W/m2
06:12 36.7 °F 36 °F 30.1 in Calm     97% 0 in 0 W/m2
06:17 36.9 °F 36.1 °F 30.1 in Calm     97% 0 in 0 W/m2
06:22 36.9 °F 36.1 °F 30.1 in Calm     97% 0 in 0 W/m2
06:27 36.9 °F 36.1 °F 30.1 in Calm     97% 0 in 0 W/m2
06:32 36.9 °F 36.1 °F 30.1 in Calm     97% 0 in 0 W/m2
06:37 36.9 °F 36.1 °F 30.1 in Calm     97% 0 in 0 W/m2
06:42 37.6 °F 36.9 °F 30.1 in West 4 mph 11 mph 97% 0 in 0 W/m2
06:48 37.8 °F 37 °F 30.1 in Calm   1 mph 97% 0 in 0 W/m2
06:53 37.9 °F 37.2 °F 30.1 in Calm   11 mph 97% 0 in 0 W/m2
06:58 38.1 °F 37.4 °F 30.1 in Calm     97% 0 in 0 W/m2
07:03 38.1 °F 37.4 °F 30.1 in Calm     97% 0 in 0 W/m2
07:08 38.3 °F 37.6 °F 30.1 in Calm     97% 0 in 0 W/m2
07:13 38.5 °F 37.8 °F 30.1 in Calm     97% 0 in 0 W/m2
07:18 38.7 °F 37.9 °F 30.1 in Calm     97% 0 in 0 W/m2
07:23 38.7 °F 37.9 °F 30.1 in Calm     97% 0 in 0 W/m2
07:28 38.7 °F 37.9 °F 30.1 in Calm     97% 0 in 0 W/m2
07:33 38.7 °F 37.9 °F 30.1 in Calm     97% 0 in 0 W/m2
07:38 38.5 °F 37.8 °F 30.1 in Calm     97% 0 in 0 W/m2
07:43 38.5 °F 37.8 °F 30.1 in Calm     97% 0 in 0 W/m2
07:48 38.1 °F 37.4 °F 30.1 in Calm     97% 0 in 0 W/m2
07:53 37.9 °F 37.2 °F 30.1 in Calm     97% 0 in 0 W/m2
07:58 37.9 °F 37.2 °F 30.1 in Calm     97% 0 in 0 W/m2
08:03 37.9 °F 37.2 °F 30.1 in Calm     97% 0 in 0 W/m2
08:08 37.8 °F 37 °F 30.1 in Calm     97% 0 in 0 W/m2
08:13 37.8 °F 37 °F 30.1 in Calm     97% 0 in 0 W/m2
08:18 37.8 °F 37 °F 30.1 in Calm     97% 0 in 0 W/m2
08:23 37.8 °F 37 °F 30.1 in Calm     97% 0 in 0 W/m2
08:28 37.9 °F 37.2 °F 30.1 in Calm     97% 0 in 0 W/m2
08:33 37.9 °F 37.2 °F 30.1 in Calm     97% 0 in 0 W/m2
08:38 38.1 °F 37.4 °F 30.1 in Calm     97% 0 in 5 W/m2
08:43 38.1 °F 37.4 °F 30.1 in Calm     97% 0 in 9 W/m2
08:48 38.5 °F 37.8 °F 30.1 in Calm     97% 0 in 12 W/m2
08:53 38.5 °F 37.8 °F 30.1 in Calm     97% 0 in 16 W/m2
08:58 38.7 °F 37.9 °F 30.1 in Calm     97% 0 in 21 W/m2
09:03 38.7 °F 37.9 °F 30.1 in Calm     97% 0 in 25 W/m2
09:08 38.8 °F 38.1 °F 30.1 in Calm     97% 0 in 26 W/m2
09:13 39 °F 38.3 °F 30.1 in Calm     97% 0 in 18 W/m2
09:18 39 °F 38.3 °F 30.1 in Calm     97% 0 in 11 W/m2
09:23 39.4 °F 38.8 °F 30.1 in Calm     98% 0 in 21 W/m2
09:28 39.6 °F 39 °F 30.1 in Calm     98% 0 in 42 W/m2
09:33 39.7 °F 39.2 °F 30.1 in Calm     98% 0 in 58 W/m2
09:38 40.1 °F 39.6 °F 30.1 in Calm     98% 0 in 54 W/m2
09:43 40.3 °F 39.7 °F 30.1 in Calm     98% 0 in 49 W/m2
09:48 40.5 °F 39.9 °F 30.1 in Calm   2 mph 98% 0 in 51 W/m2
09:53 40.8 °F 40.3 °F 30.1 in Calm   2 mph 98% 0 in 53 W/m2
09:58 41.2 °F 40.6 °F 30.1 in NNE 0.9 mph 2 mph 98% 0 in 77 W/m2
10:03 41.5 °F 41 °F 30.1 in Calm   1 mph 98% 0 in 90 W/m2
10:08 42.3 °F 41.7 °F 30.1 in Calm   2 mph 98% 0 in 86 W/m2
10:13 42.8 °F 42.3 °F 30.1 in NW 4 mph 4 mph 98% 0 in 77 W/m2
10:18 43.5 °F 43 °F 30.1 in NNW 2.9 mph 4 mph 98% 0 in 62 W/m2
10:23 44.1 °F 43.5 °F 30 in Calm   3 mph 98% 0 in 63 W/m2
10:28 44.4 °F 43.9 °F 30.1 in North 0.9 mph 6 mph 98% 0 in 60 W/m2
10:33 44.8 °F 44.2 °F 30.1 in NW 4 mph 9 mph 98% 0 in 49 W/m2
10:38 45.1 °F 44.6 °F 30.1 in NW 4 mph 4 mph 98% 0 in 37 W/m2
10:44 45.7 °F 45.1 °F 30.1 in West 0.9 mph 9 mph 98% 0 in 23 W/m2
10:49 45.9 °F 45.3 °F 30.1 in NNW 0.9 mph 3 mph 98% 0 in 16 W/m2
10:54 46.2 °F 45.1 °F 30.1 in North 0.9 mph 2 mph 96% 0 in 14 W/m2
10:59 46.6 °F 45.1 °F 30.1 in Calm   2 mph 95% 0 in 16 W/m2
11:04 46.8 °F 45.1 °F 30.1 in WNW 2 mph 4 mph 94% 0 in 19 W/m2
11:09 47.1 °F 45 °F 30.1 in SW 0.9 mph 3 mph 92% 0 in 16 W/m2
11:14 47.7 °F 45.1 °F 30.1 in NNW 0.9 mph 4 mph 91% 0 in 16 W/m2
11:19 47.7 °F 44.6 °F 30.1 in Calm   9 mph 89% 0 in 26 W/m2
11:24 48 °F 44.6 °F 30.1 in Calm   3 mph 88% 0 in 30 W/m2
11:29 48.2 °F 44.6 °F 30.1 in Calm   7 mph 87% 0 in 49 W/m2
11:34 48.2 °F 44.6 °F 30.1 in WNW 4 mph 6 mph 87% 0 in 54 W/m2
11:39 48.2 °F 44.6 °F 30.1 in NW 2 mph 2 mph 87% 0 in 53 W/m2
11:44 48 °F 44.6 °F 30.1 in Calm   1 mph 88% 0 in 51 W/m2
11:49 48 °F 44.6 °F 30.1 in Calm   4 mph 88% 0.01 in 51 W/m2
11:54 48 °F 44.6 °F 30.1 in West 2 mph 3 mph 88% 0.01 in 54 W/m2
11:59 47.8 °F 44.8 °F 30.1 in NNW 2.9 mph 6 mph 89% 0.02 in 54 W/m2
12:04 47.7 °F 44.6 °F 30.1 in WNW 2.9 mph 4 mph 89% 0.02 in 47 W/m2
12:09 47.7 °F 45 °F 30 in WNW 4 mph 7 mph 90% 0.02 in 42 W/m2
12:14 47.5 °F 45 °F 30 in WSW 8.9 mph 9 mph 91% 0.02 in 51 W/m2
12:19 47.3 °F 44.8 °F 30 in Calm   3 mph 91% 0.03 in 53 W/m2
12:24 47.1 °F 44.6 °F 30 in WSW 0.9 mph 4 mph 91% 0.03 in 53 W/m2
12:29 47.1 °F 45 °F 30 in NW 0.9 mph 3 mph 92% 0.04 in 49 W/m2
12:34 46.9 °F 44.8 °F 30 in Calm   1 mph 92% 0.04 in 51 W/m2
12:39 46.9 °F 44.8 °F 30 in WNW 2.9 mph 6 mph 92% 0.05 in 56 W/m2
12:44 46.9 °F 45 °F 30 in SW 2 mph 6 mph 93% 0.05 in 54 W/m2
12:49 46.9 °F 45 °F 30 in Calm   4 mph 93% 0.05 in 47 W/m2
12:54 46.9 °F 45 °F 30 in WSW 2 mph 4 mph 93% 0.05 in 46 W/m2
12:59 46.9 °F 45.3 °F 30 in SW 4 mph 4 mph 94% 0.05 in 46 W/m2
13:04 46.9 °F 45 °F 30 in Calm   1 mph 93% 0.05 in 42 W/m2
13:09 46.8 °F 45.1 °F 30 in WNW 2.9 mph 4 mph 94% 0.05 in 39 W/m2
13:14 46.8 °F 45.1 °F 30 in Calm   5 mph 94% 0.05 in 54 W/m2
13:19 46.8 °F 45.1 °F 30 in West 6 mph 6 mph 94% 0.04 in 60 W/m2
13:24 46.9 °F 45.3 °F 30 in Calm   2 mph 94% 0.05 in 47 W/m2
13:29 46.9 °F 45.3 °F 30 in NW 0.9 mph 2 mph 94% 0.04 in 42 W/m2
13:34 46.9 °F 45.3 °F 30 in Calm   3 mph 94% 0.04 in 39 W/m2
13:39 46.9 °F 45.3 °F 30 in WNW 2 mph 3 mph 94% 0.04 in 51 W/m2
13:44 46.9 °F 45.3 °F 30 in Calm   3 mph 94% 0.04 in 63 W/m2
13:49 46.9 °F 45.3 °F 30 in ESE 0.9 mph 3 mph 94% 0.03 in 53 W/m2
13:54 46.9 °F 45.3 °F 30 in Calm   2 mph 94% 0.03 in 35 W/m2
13:59 46.9 °F 45.3 °F 30 in Calm   2 mph 94% 0.03 in 21 W/m2
14:04 46.9 °F 45.3 °F 30 in Calm   3 mph 94% 0.03 in 23 W/m2
14:09 46.9 °F 45.3 °F 30 in Calm   3 mph 94% 0.02 in 19 W/m2
14:14 46.9 °F 45.5 °F 30 in Calm   1 mph 95% 0.02 in 14 W/m2
14:19 46.9 °F 45.5 °F 30 in Calm     95% 0.02 in 28 W/m2
14:24 46.9 °F 45.5 °F 30 in SE 2 mph 2 mph 95% 0.02 in 21 W/m2
14:29 46.9 °F 45.5 °F 30 in Calm     95% 0.02 in 28 W/m2
14:34 46.9 °F 45.5 °F 30 in Calm   6 mph 95% 0.02 in 40 W/m2
14:39 46.9 °F 45.5 °F 30 in WSW 2 mph 4 mph 95% 0.02 in 25 W/m2
14:45 47.1 °F 45.7 °F 30 in SW 2.9 mph 3 mph 95% 0.02 in 25 W/m2
14:50 47.1 °F 45.7 °F 30 in NW 0.9 mph 2 mph 95% 0.02 in 12 W/m2
14:55 47.1 °F 45.7 °F 30 in WSW 0.9 mph 8 mph 95% 0.02 in 21 W/m2
15:00 47.1 °F 45.7 °F 30 in WNW 2 mph 6 mph 95% 0.02 in 23 W/m2
15:05 47.1 °F 45.7 °F 30 in WNW 0.9 mph 1 mph 95% 0.02 in 26 W/m2
15:10 47.1 °F 45.7 °F 30 in Calm   4 mph 95% 0.02 in 46 W/m2
15:15 47.3 °F 45.9 °F 30 in Calm   2 mph 95% 0.02 in 26 W/m2
15:20 47.3 °F 45.9 °F 30 in North 4.9 mph 10 mph 95% 0.02 in 44 W/m2
15:25 47.5 °F 46 °F 30 in Calm   2 mph 95% 0.02 in 30 W/m2
15:30 47.5 °F 46 °F 30 in WSW 2 mph 10 mph 95% 0.02 in 53 W/m2
15:35 47.5 °F 45.9 °F 30 in West 6 mph 8 mph 94% 0.02 in 83 W/m2
15:40 47.5 °F 45.9 °F 30 in West 4 mph 4 mph 94% 0.01 in 76 W/m2
15:45 47.7 °F 46 °F 30 in WNW 4 mph 7 mph 94% 0.01 in 53 W/m2
15:50 47.7 °F 46 °F 30 in West 6 mph 9 mph 94% 0 in 35 W/m2
15:55 47.7 °F 46 °F 30 in WSW 4.9 mph 5 mph 94% 0 in 30 W/m2
16:00 47.7 °F 45.7 °F 30.1 in West 2 mph 9 mph 93% 0 in 32 W/m2
16:05 47.7 °F 45.7 °F 30.1 in WSW 4 mph 4 mph 93% 0 in 30 W/m2
16:10 47.7 °F 45.7 °F 30.1 in Calm   6 mph 93% 0 in 30 W/m2
16:15 47.7 °F 45.7 °F 30.1 in Calm   2 mph 93% 0 in 33 W/m2
16:20 47.7 °F 45.7 °F 30.1 in Calm   4 mph 93% 0 in 26 W/m2
16:25 47.7 °F 45.7 °F 30.1 in WNW 2 mph 2 mph 93% 0 in 37 W/m2
16:30 47.7 °F 45.7 °F 30.1 in NNW 2.9 mph 4 mph 93% 0 in 26 W/m2
16:35 47.5 °F 45.5 °F 30.1 in Calm   2 mph 93% 0 in 21 W/m2
16:40 47.5 °F 45.5 °F 30.1 in Calm     93% 0 in 16 W/m2
16:45 47.5 °F 45.5 °F 30.1 in Calm   7 mph 93% 0 in 12 W/m2
16:50 47.1 °F 45.1 °F 30.1 in WNW 0.9 mph 6 mph 93% 0 in 9 W/m2
16:55 47.1 °F 45.1 °F 30.1 in West 0.9 mph 7 mph 93% 0 in 7 W/m2
17:00 46.9 °F 45 °F 30.1 in Calm     93% 0 in 5 W/m2
17:05 46.8 °F 44.8 °F 30.1 in Calm     93% 0 in 0 W/m2
17:10 46.6 °F 44.6 °F 30.1 in Calm   6 mph 93% 0 in 0 W/m2
17:15 46.6 °F 44.6 °F 30.1 in Calm     93% 0 in 0 W/m2
17:20 46.2 °F 44.2 °F 30.1 in Calm   5 mph 93% 0 in 0 W/m2
17:25 46 °F 44.1 °F 30.1 in Calm     93% 0 in 0 W/m2
17:30 45.9 °F 43.9 °F 30.1 in Calm   2 mph 93% 0 in 0 W/m2
17:35 45.9 °F 44.2 °F 30.1 in WNW 0.9 mph 3 mph 94% 0 in 0 W/m2
17:40 45.7 °F 44.1 °F 30.1 in Calm   2 mph 94% 0 in 0 W/m2
17:45 45.9 °F 44.2 °F 30.1 in Calm   3 mph 94% 0 in 0 W/m2
17:50 45.9 °F 44.2 °F 30.1 in WNW 0.9 mph 4 mph 94% 0 in 0 W/m2
17:55 45.9 °F 44.2 °F 30.1 in West 0.9 mph 7 mph 94% 0 in 0 W/m2
18:00 45.9 °F 43.9 °F 30.1 in SSW 2.9 mph 4 mph 93% 0 in 0 W/m2
18:05 45.7 °F 43.5 °F 30.1 in WNW 0.9 mph 4 mph 92% 0 in 0 W/m2
18:10 45.7 °F 43.2 °F 30.1 in Calm   1 mph 91% 0 in 0 W/m2
18:15 45.9 °F 43.2 °F 30.1 in WSW 0.9 mph 6 mph 90% 0 in 0 W/m2
18:20 45.7 °F 43 °F 30.1 in NW 2.9 mph 3 mph 90% 0 in 0 W/m2
18:25 45.7 °F 43 °F 30.1 in Calm   10 mph 90% 0 in 0 W/m2
18:30 45.7 °F 43 °F 30.1 in Calm   7 mph 90% 0 in 0 W/m2
18:35 45.7 °F 43 °F 30.1 in WSW 2 mph 8 mph 90% 0 in 0 W/m2
18:40 45.7 °F 43 °F 30.1 in West 8.1 mph 9 mph 90% 0 in 0 W/m2
18:45 45.7 °F 43 °F 30.1 in West 6.9 mph 7 mph 90% 0 in 0 W/m2
18:50 45.7 °F 43 °F 30.1 in WNW 4 mph 9 mph 90% 0 in 0 W/m2
18:55 45.5 °F 42.8 °F 30.1 in WSW 4.9 mph 6 mph 90% 0 in 0 W/m2
19:00 45.5 °F 43 °F 30.1 in Calm   10 mph 91% 0 in 0 W/m2
19:05 45.7 °F 43.2 °F 30.1 in West 11 mph 11 mph 91% 0 in 0 W/m2
19:10 45.7 °F 43.2 °F 30.1 in WSW 4 mph 8 mph 91% 0 in 0 W/m2
19:15 45.3 °F 42.8 °F 30.1 in WSW 6.9 mph 11 mph 91% 0 in 0 W/m2
19:20 45.1 °F 42.6 °F 30.1 in SW 4 mph 10 mph 91% 0 in 0 W/m2
19:25 45 °F 42.4 °F 30.1 in WSW 4 mph 7 mph 91% 0 in 0 W/m2
19:30 45 °F 42.4 °F 30.1 in Calm   3 mph 91% 0 in 0 W/m2
19:35 44.8 °F 42.3 °F 30.1 in Calm   5 mph 91% 0 in 0 W/m2
19:40 44.6 °F 42.1 °F 30.1 in Calm   4 mph 91% 0 in 0 W/m2
19:45 44.4 °F 41.9 °F 30.1 in Calm   1 mph 91% 0 in 0 W/m2
19:50 44.2 °F 41.7 °F 30.1 in West 2.9 mph 4 mph 91% 0 in 0 W/m2
19:55 44.1 °F 41.9 °F 30.1 in Calm   7 mph 92% 0.01 in 0 W/m2
20:00 43.9 °F 41.7 °F 30.1 in Calm   3 mph 92% 0.01 in 0 W/m2
20:05 43.9 °F 41.7 °F 30.1 in WSW 4.9 mph 10 mph 92% 0.01 in 0 W/m2
20:10 44.1 °F 41.9 °F 30.1 in WSW 2.9 mph 7 mph 92% 0.01 in 0 W/m2
20:15 44.1 °F 41.9 °F 30.1 in WSW 10 mph 10 mph 92% 0.01 in 0 W/m2
20:20 44.2 °F 42.1 °F 30.2 in SSW 2 mph 8 mph 92% 0.01 in 0 W/m2
20:25 44.2 °F 42.1 °F 30.2 in West 6 mph 7 mph 92% 0.01 in 0 W/m2
20:30 44.1 °F 41.5 °F 30.2 in Calm   1 mph 91% 0.01 in 0 W/m2
20:36 43.9 °F 41.4 °F 30.2 in SW 2 mph 6 mph 91% 0.01 in 0 W/m2
20:41 43.5 °F 41.4 °F 30.2 in WSW 0.9 mph 3 mph 92% 0.01 in 0 W/m2
20:46 43.3 °F 40.8 °F 30.2 in Calm   4 mph 91% 0.01 in 0 W/m2
20:51 43.3 °F 41.2 °F 30.2 in WSW 4 mph 4 mph 92% 0 in 0 W/m2
20:56 43.2 °F 41 °F 30.2 in WSW 4 mph 10 mph 92% 0 in 0 W/m2
21:01 43.3 °F 41.2 °F 30.2 in WSW 0.9 mph 5 mph 92% 0 in 0 W/m2
21:06 43.2 °F 41 °F 30.2 in SW 2.9 mph 10 mph 92% 0 in 0 W/m2
21:11 43.2 °F 41 °F 30.2 in WSW 2 mph 8 mph 92% 0 in 0 W/m2
21:16 43.2 °F 41 °F 30.2 in SW 10 mph 10 mph 92% 0 in 0 W/m2
21:21 43 °F 40.8 °F 30.2 in West 2 mph 9 mph 92% 0 in 0 W/m2
21:26 43 °F 40.8 °F 30.2 in West 10 mph 10 mph 92% 0 in 0 W/m2
21:31 43 °F 40.5 °F 30.2 in WSW 2 mph 8 mph 91% 0 in 0 W/m2
21:36 43 °F 40.5 °F 30.2 in Calm   6 mph 91% 0 in 0 W/m2
21:41 43 °F 40.5 °F 30.2 in West 6.9 mph 10 mph 91% 0 in 0 W/m2
21:46 43 °F 40.5 °F 30.2 in West 8.1 mph 10 mph 91% 0 in 0 W/m2
21:51 43 °F 40.3 °F 30.2 in West 6.9 mph 9 mph 90% 0 in 0 W/m2
21:56 43 °F 40.3 °F 30.2 in WNW 6.9 mph 12 mph 90% 0 in 0 W/m2
22:01 43 °F 40.3 °F 30.2 in WSW 2 mph 5 mph 90% 0 in 0 W/m2
22:07 42.6 °F 39.9 °F 30.2 in WSW 4.9 mph 9 mph 90% 0 in 0 W/m2
22:12 42.6 °F 39.9 °F 30.2 in West 2 mph 6 mph 90% 0 in 0 W/m2
22:17 42.4 °F 39.7 °F 30.2 in WSW 2.9 mph 6 mph 90% 0 in 0 W/m2
22:22 42.4 °F 39.7 °F 30.2 in WSW 4 mph 10 mph 90% 0 in 0 W/m2
22:27 42.6 °F 39.9 °F 30.2 in WSW 2.9 mph 8 mph 90% 0 in 0 W/m2
22:32 42.4 °F 39.7 °F 30.2 in WSW 0.9 mph 10 mph 90% 0 in 0 W/m2
22:37 42.4 °F 39.4 °F 30.2 in Calm   1 mph 89% 0 in 0 W/m2
22:42 42.3 °F 39.6 °F 30.2 in Calm   4 mph 90% 0 in 0 W/m2
22:47 42.1 °F 39.4 °F 30.2 in WSW 2.9 mph 10 mph 90% 0 in 0 W/m2
22:52 42.1 °F 39.4 °F 30.2 in WSW 4.9 mph 5 mph 90% 0 in 0 W/m2
22:57 42.1 °F 39.4 °F 30.2 in SW 2.9 mph 10 mph 90% 0 in 0 W/m2
23:02 41.9 °F 39.2 °F 30.2 in West 2 mph 7 mph 90% 0 in 0 W/m2
23:07 41.9 °F 39.2 °F 30.2 in WSW 2 mph 8 mph 90% 0 in 0 W/m2
23:12 41.7 °F 39 °F 30.2 in Calm   7 mph 90% 0 in 0 W/m2
23:17 41.5 °F 38.8 °F 30.2 in WSW 4.9 mph 9 mph 90% 0 in 0 W/m2
23:22 41.5 °F 38.8 °F 30.2 in WSW 11 mph 13 mph 90% 0 in 0 W/m2
23:27 41.5 °F 38.8 °F 30.2 in WSW 6 mph 9 mph 90% 0 in 0 W/m2
23:32 41.5 °F 38.5 °F 30.2 in WSW 10.1 mph 12 mph 89% 0 in 0 W/m2
23:37 41.5 °F 38.5 °F 30.2 in Calm   6 mph 89% 0 in 0 W/m2
23:42 41.4 °F 38.3 °F 30.2 in West 4 mph 10 mph 89% 0 in 0 W/m2
23:47 41.4 °F 38.1 °F 30.2 in Calm   4 mph 88% 0 in 0 W/m2
23:52 41.2 °F 38.1 °F 30.2 in West 2 mph 8 mph 89% 0 in 0 W/m2
23:57 40.8 °F 37.8 °F 30.2 in West 2 mph 3 mph 89% 0 in 0 W/m2
Juneau County Weather
Compliments of Weather Underground - 4 mb